Time;durP1;ratioP1;P1;durP2;ratioP2;P2;SDS_P1;SDS_P2;PMS_P1;PMS_P2;Temp;Humidity;BMP_temperature;BMP_pressure;BME280_temperature;BME280_humidity;BME280_pressure;Samples;Min_cycle;Max_cycle;Signal;HPM_P1;HPM_P2
2021/05/09 00:00:37;;;;;;;2.30;2.13;;;;;;;11.62;67.91;99519.13;5091234;28;20020;-82
2021/05/09 00:03:02;;;;;;;3.28;2.22;;;;;;;11.60;67.75;99524.75;5091276;28;20467;-81
2021/05/09 00:05:28;;;;;;;3.67;2.90;;;;;;;11.60;67.60;99530.09;5090892;28;20032;-79
2021/05/09 00:07:53;;;;;;;3.13;2.10;;;;;;;11.59;67.90;99533.84;5091143;28;20016;-79
2021/05/09 00:10:19;;;;;;;2.00;1.55;;;;;;;11.58;67.70;99540.28;5090872;28;20525;-81
2021/05/09 00:12:46;;;;;;;6.63;1.88;;;;;;;11.56;67.88;99536.28;5091024;28;20478;-81
2021/05/09 00:15:12;;;;;;;3.70;1.92;;;;;;;11.54;67.47;99539.22;5090426;28;20076;-80
2021/05/09 00:17:39;;;;;;;2.03;1.92;;;;;;;11.54;67.77;99540.03;5090923;28;20028;-80
2021/05/09 00:20:07;;;;;;;2.78;2.35;;;;;;;11.54;67.66;99547.25;5090920;28;20031;-80
2021/05/09 00:22:33;;;;;;;3.15;1.95;;;;;;;11.51;67.72;99553.97;5090563;28;20020;-80
2021/05/09 00:24:58;;;;;;;2.70;2.50;;;;;;;11.49;67.69;99558.78;5090882;28;20031;-81
2021/05/09 00:27:24;;;;;;;2.90;2.20;;;;;;;11.45;67.53;99559.59;5090625;28;20595;-79
2021/05/09 00:29:49;;;;;;;2.97;2.40;;;;;;;11.38;67.45;99557.19;5090826;28;20410;-79
2021/05/09 00:32:15;;;;;;;2.47;2.15;;;;;;;11.36;67.32;99565.50;5089740;28;20514;-80
2021/05/09 00:34:40;;;;;;;4.18;2.65;;;;;;;11.34;67.63;99574.88;5090669;28;20012;-79
2021/05/09 00:37:06;;;;;;;4.07;2.20;;;;;;;11.32;67.61;99572.44;5090656;28;20024;-79
2021/05/09 00:39:31;;;;;;;3.28;2.67;;;;;;;11.31;67.55;99567.38;5090204;28;20490;-80
2021/05/09 00:42:04;;;;;;;4.05;2.30;;;;;;;11.28;67.53;99574.06;5090534;28;20608;-80
2021/05/09 00:44:31;;;;;;;2.65;2.45;;;;;;;11.26;68.01;99567.38;5090432;28;20054;-80
2021/05/09 00:46:56;;;;;;;5.80;2.35;;;;;;;11.22;68.18;99572.44;5090427;28;20024;-82
2021/05/09 00:49:23;;;;;;;2.70;2.33;;;;;;;11.20;67.82;99575.41;5090127;28;20601;-80
2021/05/09 00:51:53;;;;;;;2.70;2.30;;;;;;;11.19;67.97;99579.16;5090376;28;20028;-80
2021/05/09 00:54:21;;;;;;;3.45;2.55;;;;;;;11.17;68.50;99575.91;5089960;28;20020;-80
2021/05/09 00:56:48;;;;;;;2.78;2.33;;;;;;;11.18;68.52;99577.53;5090466;28;20383;-80
2021/05/09 00:59:15;;;;;;;4.30;3.03;;;;;;;11.20;69.07;99582.63;5090075;28;20023;-80
2021/05/09 01:01:44;;;;;;;4.03;3.00;;;;;;;11.21;68.93;99585.03;5090265;28;20386;-80
2021/05/09 01:04:12;;;;;;;3.78;2.58;;;;;;;11.20;68.98;99596.00;5090175;28;20329;-80
2021/05/09 01:06:38;;;;;;;4.78;2.83;;;;;;;11.18;68.69;99584.75;5090206;28;20059;-79
2021/05/09 01:09:04;;;;;;;3.25;2.40;;;;;;;11.20;68.82;99593.31;5090134;28;20047;-79
2021/05/09 01:11:29;;;;;;;2.45;2.20;;;;;;;11.21;68.79;99584.22;5089894;28;20816;-80
2021/05/09 01:13:55;;;;;;;3.42;2.83;;;;;;;11.19;68.74;99583.69;5089978;28;20023;-79
2021/05/09 01:16:20;;;;;;;3.13;2.88;;;;;;;11.20;68.85;99591.47;5089709;28;20035;-80
2021/05/09 01:18:46;;;;;;;5.75;2.60;;;;;;;11.18;68.39;99593.59;5090082;28;20031;-80
2021/05/09 01:21:11;;;;;;;5.00;3.20;;;;;;;11.14;68.65;99599.75;5089908;28;20111;-79
2021/05/09 01:23:37;;;;;;;3.03;2.72;;;;;;;11.10;68.53;99596.78;5089968;28;20020;-80
2021/05/09 01:26:03;;;;;;;3.30;2.95;;;;;;;11.07;68.49;99596.53;5089940;28;20020;-79
2021/05/09 01:28:28;;;;;;;3.42;2.55;;;;;;;11.02;68.57;99610.69;5089667;28;20081;-79
2021/05/09 01:30:54;;;;;;;2.80;2.47;;;;;;;10.98;68.28;99605.06;5089710;28;20052;-80
2021/05/09 01:33:20;;;;;;;3.10;2.63;;;;;;;10.96;68.29;99607.22;5089519;28;20110;-79
2021/05/09 01:35:45;;;;;;;2.95;2.53;;;;;;;10.91;68.29;99612.53;5089749;28;20059;-79
2021/05/09 01:38:11;;;;;;;2.80;2.30;;;;;;;10.86;68.22;99612.53;5089589;28;20024;-79
2021/05/09 01:40:36;;;;;;;6.93;3.90;;;;;;;10.82;68.14;99609.56;5089502;28;20032;-79
2021/05/09 01:43:02;;;;;;;5.38;3.30;;;;;;;10.78;68.15;99613.84;5089770;28;20048;-80
2021/05/09 01:45:27;;;;;;;3.30;2.70;;;;;;;10.72;68.43;99604.22;5089498;28;20547;-80
2021/05/09 01:47:53;;;;;;;4.35;3.13;;;;;;;10.67;68.11;99621.03;5089724;28;20020;-79
2021/05/09 01:50:20;;;;;;;3.65;2.83;;;;;;;10.63;68.28;99614.63;5090151;28;20032;-79
2021/05/09 01:52:46;;;;;;;3.28;2.97;;;;;;;10.61;68.24;99616.75;5093755;28;20387;-80
2021/05/09 01:55:23;;;;;;;3.25;2.78;;;;;;;10.56;68.79;99611.38;5093633;28;20409;-79
2021/05/09 01:57:49;;;;;;;7.63;3.25;;;;;;;10.52;68.93;99605.75;5093714;28;20471;-79
2021/05/09 02:00:18;;;;;;;6.78;3.70;;;;;;;10.50;68.70;99617.78;5093249;28;20031;-82
2021/05/09 02:02:44;;;;;;;4.45;3.15;;;;;;;10.49;69.09;99619.63;5093481;28;20031;-80
2021/05/09 02:05:10;;;;;;;4.05;3.25;;;;;;;10.49;69.12;99626.84;5093508;28;20417;-79
2021/05/09 02:07:36;;;;;;;4.88;3.15;;;;;;;10.47;68.30;99629.78;5093242;28;20478;-82
2021/05/09 02:10:04;;;;;;;3.83;2.85;;;;;;;10.47;68.37;99635.13;5093251;28;20047;-82
2021/05/09 02:12:30;;;;;;;8.25;2.88;;;;;;;10.49;67.79;99633.00;5093065;28;20062;-82
2021/05/09 02:14:55;;;;;;;6.03;3.42;;;;;;;10.49;67.85;99633.00;5093292;28;20063;-80
2021/05/09 02:17:21;;;;;;;4.95;3.28;;;;;;;10.48;66.71;99630.59;5092885;28;20027;-80
2021/05/09 02:19:47;;;;;;;6.93;3.22;;;;;;;10.48;66.73;99631.38;5093147;28;20016;-80
2021/05/09 02:22:13;;;;;;;3.88;2.40;;;;;;;10.47;66.55;99635.13;5094645;28;20016;-80
2021/05/09 02:24:38;;;;;;;3.00;2.65;;;;;;;10.46;66.19;99630.03;5092906;28;20032;-82
2021/05/09 02:27:04;;;;;;;2.65;2.45;;;;;;;10.48;65.34;99635.94;5093047;28;20378;-82
2021/05/09 02:29:29;;;;;;;7.32;3.17;;;;;;;10.45;65.09;99647.16;5092689;28;20111;-82
2021/05/09 02:31:55;;;;;;;4.45;3.10;;;;;;;10.45;65.18;99661.34;5092380;28;20048;-82
2021/05/09 02:34:20;;;;;;;3.83;2.72;;;;;;;10.40;65.47;99669.34;5092517;28;20012;-81
2021/05/09 02:36:46;;;;;;;3.42;3.13;;;;;;;10.32;65.40;99675.94;5092720;28;20032;-81
2021/05/09 02:39:13;;;;;;;3.75;2.95;;;;;;;10.18;67.79;99693.47;5092727;28;20031;-81
2021/05/09 02:41:39;;;;;;;8.60;4.20;;;;;;;10.02;68.66;99697.91;5093016;28;20119;-81
2021/05/09 02:44:05;;;;;;;3.55;2.75;;;;;;;9.85;69.06;99690.03;5094469;28;20020;-79
2021/05/09 02:46:31;;;;;;;3.45;2.67;;;;;;;9.66;68.92;99705.66;5095325;28;20032;-80
2021/05/09 02:48:57;;;;;;;7.25;3.85;;;;;;;9.40;68.15;99708.06;5095066;28;20022;-79
2021/05/09 02:51:22;;;;;;;4.72;3.30;;;;;;;9.17;69.20;99717.97;5097512;28;20024;-80
2021/05/09 02:53:48;;;;;;;4.68;3.88;;;;;;;8.91;70.37;99727.53;5104190;28;20028;-80
2021/05/09 02:56:13;;;;;;;3.83;3.08;;;;;;;8.72;70.71;99729.69;5099528;28;20024;-80
2021/05/09 02:58:39;;;;;;;2.92;2.67;;;;;;;8.52;71.27;99727.53;5098199;28;20016;-79
2021/05/09 03:01:04;;;;;;;3.78;3.00;;;;;;;8.42;71.51;99737.00;5096882;28;20120;-80
2021/05/09 03:03:30;;;;;;;4.97;3.40;;;;;;;8.34;72.27;99748.84;5096856;28;20019;-79
2021/05/09 03:05:55;;;;;;;4.63;3.20;;;;;;;8.30;72.31;99752.25;5098133;28;20020;-81
2021/05/09 03:08:21;;;;;;;4.88;3.05;;;;;;;8.24;72.52;99756.72;5095826;28;20438;-82
2021/05/09 03:10:46;;;;;;;3.67;3.25;;;;;;;8.17;72.99;99756.84;5096696;28;20022;-80
2021/05/09 03:13:12;;;;;;;5.60;3.42;;;;;;;8.20;72.69;99752.09;5096853;28;20047;-80
2021/05/09 03:15:37;;;;;;;3.47;3.00;;;;;;;8.16;72.83;99762.44;5096447;28;20056;-80
2021/05/09 03:18:03;;;;;;;3.30;3.00;;;;;;;8.18;73.44;99763.81;5096716;28;20119;-80
2021/05/09 03:20:28;;;;;;;3.15;2.83;;;;;;;8.27;73.34;99761.53;5097905;28;20024;-80
2021/05/09 03:22:54;;;;;;;6.90;3.35;;;;;;;8.51;73.04;99772.06;5097619;28;20083;-80
2021/05/09 03:25:20;;;;;;;2.78;2.47;;;;;;;8.83;73.27;99779.44;5095606;28;20489;-79
2021/05/09 03:27:45;;;;;;;9.23;3.67;;;;;;;9.23;71.89;99781.03;5096278;28;20016;-80
2021/05/09 03:30:11;;;;;;;4.10;2.88;;;;;;;9.69;70.89;99782.59;5092622;28;20035;-80
2021/05/09 03:32:37;;;;;;;5.60;2.72;;;;;;;10.20;69.65;99784.91;5091435;28;20489;-80
2021/05/09 03:35:06;;;;;;;4.55;2.72;;;;;;;10.74;68.00;99789.31;5091671;28;20024;-80
2021/05/09 03:37:32;;;;;;;2.90;2.55;;;;;;;11.35;66.65;99788.00;5091561;28;20119;-81
2021/05/09 03:39:57;;;;;;;4.88;3.72;;;;;;;11.93;64.76;99782.50;5091654;28;20122;-80
2021/05/09 03:42:23;;;;;;;5.20;3.15;;;;;;;12.54;63.14;99788.97;5091488;28;20051;-81
2021/05/09 03:44:48;;;;;;;3.33;2.58;;;;;;;13.20;61.33;99791.75;5091678;28;20096;-80
2021/05/09 03:47:14;;;;;;;3.40;2.70;;;;;;;13.84;60.45;99789.28;5091510;28;20027;-80
2021/05/09 03:49:41;;;;;;;4.50;2.45;;;;;;;14.39;57.32;99806.09;5091199;28;20024;-80
2021/05/09 03:52:06;;;;;;;6.28;2.97;;;;;;;14.99;55.00;99812.25;5091238;28;20073;-82
2021/05/09 03:54:32;;;;;;;3.47;2.13;;;;;;;15.53;52.81;99812.97;5091021;28;20024;-82
2021/05/09 03:56:57;;;;;;;2.58;2.38;;;;;;;16.10;50.49;99818.38;5091297;28;20038;-82
2021/05/09 03:59:23;;;;;;;3.47;2.72;;;;;;;16.54;50.31;99823.59;5091038;28;20102;-81
2021/05/09 04:01:48;;;;;;;4.82;3.22;;;;;;;17.03;48.69;99826.81;5091094;28;20023;-81
2021/05/09 04:04:13;;;;;;;4.82;3.30;;;;;;;17.53;48.61;99828.81;5091333;28;20023;-80
2021/05/09 04:06:39;;;;;;;2.95;2.50;;;;;;;18.05;47.08;99831.19;5090785;28;20081;-81
2021/05/09 04:09:08;;;;;;;4.72;4.25;;;;;;;18.31;45.38;99828.66;5091209;28;20026;-81
2021/05/09 04:11:34;;;;;;;5.28;4.18;;;;;;;18.79;44.75;99837.22;5090829;28;20106;-81
2021/05/09 04:13:59;;;;;;;11.77;8.68;;;;;;;19.22;43.06;99839.31;5090453;28;20111;-80
2021/05/09 04:16:25;;;;;;;7.10;4.03;;;;;;;19.65;42.55;99841.34;5091212;28;20304;-80
2021/05/09 04:18:50;;;;;;;3.83;2.85;;;;;;;20.14;42.60;99841.22;5091296;28;20024;-80
2021/05/09 04:21:16;;;;;;;2.72;2.53;;;;;;;20.58;39.77;99841.16;5090823;28;20483;-80
2021/05/09 04:23:41;;;;;;;2.95;2.17;;;;;;;20.84;40.08;99851.16;5090909;28;20032;-80
2021/05/09 04:26:07;;;;;;;6.13;3.10;;;;;;;21.08;37.57;99850.59;5091093;28;20028;-80
2021/05/09 04:28:32;;;;;;;4.88;3.28;;;;;;;21.23;34.44;99845.72;5090990;28;20022;-80
2021/05/09 04:30:58;;;;;;;2.30;2.10;;;;;;;21.27;34.65;99854.81;5090609;28;20047;-80
2021/05/09 04:33:26;;;;;;;2.72;2.53;;;;;;;21.33;34.63;99850.00;5090167;28;20028;-79
2021/05/09 04:35:52;;;;;;;1.85;1.75;;;;;;;21.20;34.92;99851.81;5090885;28;20032;-79
2021/05/09 04:38:18;;;;;;;1.60;1.50;;;;;;;21.25;34.97;99867.94;5090775;28;20038;-79
2021/05/09 04:40:44;;;;;;;2.58;2.38;;;;;;;21.28;34.57;99865.38;5090031;28;20028;-80
2021/05/09 04:43:12;;;;;;;2.00;1.65;;;;;;;21.45;35.20;99871.84;5090860;28;20497;-81
2021/05/09 04:45:38;;;;;;;1.10;1.10;;;;;;;21.63;33.79;99871.78;5090531;28;20023;-80
2021/05/09 04:48:05;;;;;;;2.60;2.28;;;;;;;21.65;34.19;99867.59;5090346;28;20026;-80
2021/05/09 04:50:31;;;;;;;2.58;1.58;;;;;;;21.86;34.18;99869.53;5090418;28;20028;-81
2021/05/09 04:52:56;;;;;;;2.47;1.95;;;;;;;22.08;32.50;99871.13;5090770;28;20020;-80
2021/05/09 04:55:22;;;;;;;1.65;1.52;;;;;;;22.15;32.73;99876.03;5090825;28;20031;-79
2021/05/09 04:57:48;;;;;;;1.48;1.38;;;;;;;22.47;31.67;99879.13;5090262;28;20370;-80
2021/05/09 05:00:14;;;;;;;3.15;1.95;;;;;;;22.48;31.43;99886.97;5090696;28;20475;-79
2021/05/09 05:02:44;;;;;;;1.40;1.30;;;;;;;22.45;32.10;99882.22;5090369;28;20060;-81
2021/05/09 05:05:10;;;;;;;1.60;1.50;;;;;;;22.55;31.25;99884.50;5090281;28;20047;-80
2021/05/09 05:07:36;;;;;;;1.60;1.50;;;;;;;22.46;30.72;99888.44;5090190;28;20375;-80
2021/05/09 05:10:03;;;;;;;3.08;1.42;;;;;;;22.29;31.61;99889.38;5090540;28;20031;-81
2021/05/09 05:12:29;;;;;;;3.60;1.55;;;;;;;22.42;32.74;99887.53;5090126;28;20020;-80
2021/05/09 05:14:54;;;;;;;1.65;1.55;;;;;;;22.43;32.01;99905.47;5090343;28;20035;-81
2021/05/09 05:17:20;;;;;;;1.65;1.48;;;;;;;22.45;31.56;99900.47;5090284;28;20024;-80
2021/05/09 05:19:45;;;;;;;2.78;1.30;;;;;;;22.42;31.19;99904.66;5089753;28;20490;-80
2021/05/09 05:22:11;;;;;;;2.63;1.13;;;;;;;22.46;30.21;99910.25;5090155;28;20118;-78
2021/05/09 05:24:36;;;;;;;3.15;1.40;;;;;;;22.42;31.65;99907.41;5090182;28;20463;-80
2021/05/09 05:27:02;;;;;;;1.10;1.08;;;;;;;22.47;31.06;99914.56;5094909;28;20032;-81
2021/05/09 05:29:28;;;;;;;1.40;1.25;;;;;;;22.51;31.35;99916.31;5094387;28;20417;-81
2021/05/09 05:31:53;;;;;;;1.95;1.02;;;;;;;22.41;30.35;99914.00;5094584;28;20066;-81
2021/05/09 05:34:19;;;;;;;2.67;1.40;;;;;;;22.47;30.06;99918.13;5094491;28;20024;-81
2021/05/09 05:36:45;;;;;;;16.80;3.45;;;;;;;22.42;31.42;99920.22;5094246;28;20028;-81
2021/05/09 05:39:11;;;;;;;1.42;1.15;;;;;;;22.38;29.89;99920.09;5094525;28;20047;-81
2021/05/09 05:41:36;;;;;;;2.03;1.08;;;;;;;22.38;29.33;99926.34;5093989;28;20108;-81
2021/05/09 05:44:02;;;;;;;2.20;1.40;;;;;;;22.26;29.36;99928.19;5094199;28;20016;-80
2021/05/09 05:46:29;;;;;;;1.50;1.30;;;;;;;22.34;30.09;99930.06;5093828;28;20467;-79
2021/05/09 05:48:55;;;;;;;1.20;1.10;;;;;;;22.39;30.08;99933.38;5094067;28;20383;-80
2021/05/09 05:51:20;;;;;;;0.98;0.98;;;;;;;22.37;30.18;99932.09;5094302;28;20028;-79
2021/05/09 05:53:46;;;;;;;1.40;1.30;;;;;;;22.56;29.57;99928.94;5093602;28;20020;-81
2021/05/09 05:56:12;;;;;;;1.58;1.20;;;;;;;22.55;30.63;99930.84;5093752;28;20433;-80
2021/05/09 05:58:37;;;;;;;1.70;1.60;;;;;;;22.50;29.93;99938.44;5093503;28;20043;-79
2021/05/09 06:01:03;;;;;;;1.20;1.00;;;;;;;22.31;30.76;99933.44;5093920;28;20646;-79
2021/05/09 06:03:29;;;;;;;1.17;1.08;;;;;;;22.13;31.05;99939.03;5093539;28;20378;-80
2021/05/09 06:05:56;;;;;;;1.48;1.05;;;;;;;21.91;31.01;99935.50;5094036;28;20026;-79
2021/05/09 06:08:23;;;;;;;2.03;1.00;;;;;;;21.70;31.21;99938.19;5093740;28;20023;-79
2021/05/09 06:10:49;;;;;;;1.15;1.05;;;;;;;21.70;31.80;99945.53;5093447;28;20410;-79
2021/05/09 06:13:14;;;;;;;1.33;1.25;;;;;;;21.63;32.55;99948.78;5093335;28;20028;-79
2021/05/09 06:15:40;;;;;;;2.03;1.58;;;;;;;21.59;31.72;99943.22;5093093;28;20050;-80
2021/05/09 06:18:06;;;;;;;1.25;1.17;;;;;;;21.34;31.93;99950.34;5093559;28;20024;-79
2021/05/09 06:20:32;;;;;;;2.03;1.50;;;;;;;21.11;31.76;99950.56;5093248;28;20024;-79
2021/05/09 06:22:59;;;;;;;2.08;1.20;;;;;;;21.13;32.05;99955.69;5093373;28;20020;-80
2021/05/09 06:25:25;;;;;;;3.20;1.38;;;;;;;21.00;33.19;99968.34;5093363;28;20027;-79
2021/05/09 06:27:51;;;;;;;2.72;1.73;;;;;;;20.86;33.83;99962.31;5092849;28;20429;-80
2021/05/09 06:30:17;;;;;;;1.35;1.25;;;;;;;20.78;34.35;99964.72;5092900;28;20134;-80
2021/05/09 06:32:43;;;;;;;4.10;1.60;;;;;;;20.72;34.93;99968.72;5092681;28;20024;-80
2021/05/09 06:35:09;;;;;;;1.58;1.48;;;;;;;20.72;34.34;99970.66;5093073;28;20028;-80
2021/05/09 06:37:35;;;;;;;2.78;1.48;;;;;;;20.72;34.07;99965.22;5092197;28;20016;-80
2021/05/09 06:40:01;;;;;;;2.17;1.77;;;;;;;20.45;34.75;99969.84;5092874;28;20032;-80
2021/05/09 06:42:27;;;;;;;2.20;1.95;;;;;;;20.20;35.38;99972.22;5093188;28;20077;-80
2021/05/09 06:44:58;;;;;;;1.70;1.60;;;;;;;19.91;36.00;99981.75;5092778;28;20478;-80
2021/05/09 06:47:23;;;;;;;1.55;1.45;;;;;;;19.81;36.39;99971.13;5092795;28;20406;-80
2021/05/09 06:49:49;;;;;;;1.60;1.50;;;;;;;19.63;36.63;99964.88;5092448;28;20085;-80
2021/05/09 06:52:15;;;;;;;1.90;1.45;;;;;;;19.57;37.58;99972.34;5092660;28;20073;-81
2021/05/09 06:54:40;;;;;;;3.90;2.30;;;;;;;19.41;37.15;99980.09;5092370;28;20026;-80
2021/05/09 06:57:06;;;;;;;4.32;1.35;;;;;;;19.23;37.31;99979.22;5092495;28;20471;-81
2021/05/09 06:59:31;;;;;;;1.90;1.70;;;;;;;19.11;38.29;99974.34;5092409;28;20042;-80
2021/05/09 07:01:57;;;;;;;1.65;1.52;;;;;;;19.00;39.24;99975.75;5092508;28;20470;-80
2021/05/09 07:04:23;;;;;;;2.70;1.70;;;;;;;18.84;39.46;99984.22;5092579;28;20390;-80
2021/05/09 07:06:48;;;;;;;1.73;1.60;;;;;;;18.71;40.38;99983.19;5092186;28;20020;-80
2021/05/09 07:09:14;;;;;;;1.80;1.63;;;;;;;18.51;41.16;99994.47;5092092;28;20510;-79
2021/05/09 07:11:40;;;;;;;3.25;1.75;;;;;;;18.19;42.00;99999.78;5092478;28;20035;-79
2021/05/09 07:14:05;;;;;;;1.75;1.65;;;;;;;17.96;42.05;100017.06;5092121;28;20060;-81
2021/05/09 07:16:32;;;;;;;3.70;1.30;;;;;;;17.61;43.59;100020.09;5092127;28;20434;-80
2021/05/09 07:18:59;;;;;;;1.60;1.50;;;;;;;17.22;43.47;100014.03;5092201;28;20114;-79
2021/05/09 07:21:34;;;;;;;2.00;1.50;;;;;;;16.94;43.49;100007.72;5092149;28;20024;-80
2021/05/09 07:24:00;;;;;;;1.70;1.60;;;;;;;16.61;45.50;100011.19;5091887;28;20266;-80
2021/05/09 07:26:25;;;;;;;3.55;1.70;;;;;;;16.55;46.73;100016.94;5092021;28;20035;-80
2021/05/09 07:28:51;;;;;;;1.70;1.60;;;;;;;16.49;46.01;100011.59;5091525;28;20560;-80
2021/05/09 07:31:16;;;;;;;1.80;1.55;;;;;;;16.46;45.51;100016.78;5091674;28;20085;-79
2021/05/09 07:33:42;;;;;;;3.53;1.40;;;;;;;16.41;46.16;100008.75;5091544;28;20062;-80
2021/05/09 07:36:08;;;;;;;1.95;1.75;;;;;;;16.42;46.75;100002.28;5091855;28;20093;-80
2021/05/09 07:38:34;;;;;;;1.75;1.65;;;;;;;16.51;47.36;100008.59;5091546;28;20031;-80
2021/05/09 07:41:00;;;;;;;1.90;1.80;;;;;;;16.58;47.18;100024.47;5091780;28;20466;-80
2021/05/09 07:43:27;;;;;;;1.95;1.85;;;;;;;16.47;46.09;100021.09;5091991;28;20559;-81
2021/05/09 07:45:53;;;;;;;3.22;1.45;;;;;;;16.48;47.12;100012.69;5091375;28;20459;-81
2021/05/09 07:48:19;;;;;;;1.40;1.20;;;;;;;16.54;46.33;100018.84;5090527;28;20031;-81
2021/05/09 07:50:44;;;;;;;1.65;1.38;;;;;;;16.63;46.57;100016.28;5091089;28;20127;-80
2021/05/09 07:53:13;;;;;;;4.40;1.50;;;;;;;16.76;46.34;100018.25;5091519;28;20023;-81
2021/05/09 07:55:39;;;;;;;1.00;0.93;;;;;;;16.77;46.07;100021.72;5091105;28;20024;-81
2021/05/09 07:58:19;;;;;;;1.17;1.13;;;;;;;16.87;46.61;100028.88;5091974;28;20023;-81
2021/05/09 08:00:45;;;;;;;1.20;1.10;;;;;;;16.85;44.82;100031.88;5090702;28;20481;-81
2021/05/09 08:03:12;;;;;;;1.42;1.33;;;;;;;16.87;45.34;100028.88;5091121;28;20020;-81
2021/05/09 08:05:38;;;;;;;1.83;1.45;;;;;;;16.89;45.31;100019.38;5090876;28;20476;-81
2021/05/09 08:08:04;;;;;;;1.88;1.50;;;;;;;16.93;45.54;100019.63;5091027;28;20077;-81
2021/05/09 08:10:35;;;;;;;1.17;1.13;;;;;;;16.90;45.20;100020.19;5091119;28;20024;-81
2021/05/09 08:13:02;;;;;;;1.40;1.30;;;;;;;16.90;45.30;100026.41;5091054;28;20471;-80
2021/05/09 08:15:27;;;;;;;2.78;1.67;;;;;;;16.83;44.48;100025.16;5091518;28;20043;-81
2021/05/09 08:17:54;;;;;;;1.55;1.13;;;;;;;16.75;44.54;100030.13;5091082;28;20024;-81
2021/05/09 08:20:20;;;;;;;1.20;1.10;;;;;;;16.84;45.44;100022.16;5091282;28;20028;-82
2021/05/09 08:22:46;;;;;;;1.75;1.30;;;;;;;16.93;44.37;100022.31;5091552;28;20023;-81
2021/05/09 08:25:14;;;;;;;2.33;1.83;;;;;;;17.01;44.77;100020.88;5091127;28;20031;-81
2021/05/09 08:27:40;;;;;;;1.27;1.17;;;;;;;17.16;44.96;100028.72;5090436;28;20034;-81
2021/05/09 08:30:06;;;;;;;2.55;1.70;;;;;;;17.33;43.71;100030.06;5090894;28;20141;-81
2021/05/09 08:32:32;;;;;;;1.60;1.50;;;;;;;17.44;43.65;100023.38;5090342;28;20491;-82
2021/05/09 08:34:59;;;;;;;3.03;1.73;;;;;;;17.55;44.19;100016.69;5090556;28;20031;-82
2021/05/09 08:37:25;;;;;;;3.15;2.20;;;;;;;17.69;44.10;100018.63;5090619;28;20047;-81
2021/05/09 08:39:51;;;;;;;3.03;1.48;;;;;;;17.79;43.76;100020.31;5090531;28;20024;-81
2021/05/09 08:42:18;;;;;;;2.58;1.30;;;;;;;17.79;43.34;100014.91;5090609;28;20095;-82
2021/05/09 08:44:48;;;;;;;2.22;1.33;;;;;;;17.83;43.16;100022.09;5090470;28;20174;-82
2021/05/09 08:47:22;;;;;;;3.05;1.30;;;;;;;17.82;42.11;100025.94;5090647;28;20031;-81
2021/05/09 08:49:51;;;;;;;2.03;1.30;;;;;;;17.79;41.88;100039.25;5090122;28;20398;-81
2021/05/09 08:52:20;;;;;;;1.67;1.58;;;;;;;17.84;41.97;100025.63;5090276;28;20032;-81
2021/05/09 08:54:47;;;;;;;1.35;1.08;;;;;;;17.99;42.16;100021.84;5090302;28;20084;-81
2021/05/09 08:57:14;;;;;;;1.38;1.27;;;;;;;18.14;42.06;100028.84;5090473;28;20088;-80
2021/05/09 08:59:39;;;;;;;1.20;1.15;;;;;;;18.29;41.64;100016.91;5090326;28;20023;-80
2021/05/09 09:02:05;;;;;;;1.30;1.20;;;;;;;18.47;42.04;100021.38;5090513;28;20481;-82
2021/05/09 09:04:45;;;;;;;1.00;1.00;;;;;;;18.75;40.95;100020.47;5090300;28;20027;-81
2021/05/09 09:07:12;;;;;;;2.33;1.40;;;;;;;18.97;41.39;100006.97;5090076;28;20039;-80
2021/05/09 09:09:44;;;;;;;1.50;1.40;;;;;;;19.10;39.14;100028.91;5090361;28;20028;-80
2021/05/09 09:12:11;;;;;;;2.80;1.55;;;;;;;18.99;40.06;100021.03;5090306;28;20028;-80
2021/05/09 09:14:57;;;;;;;2.55;1.27;;;;;;;18.84;40.14;100027.56;5090031;28;20085;-80
2021/05/09 09:17:24;;;;;;;2.20;1.00;;;;;;;18.72;40.29;100019.19;5090178;28;20347;-80
2021/05/09 09:20:18;;;;;;;1.40;1.30;;;;;;;18.70;40.24;100018.69;5089915;28;20028;-80
2021/05/09 09:22:50;;;;;;;1.08;1.08;;;;;;;18.55;40.00;100009.81;5089952;28;20051;-80
2021/05/09 09:25:17;;;;;;;1.23;1.13;;;;;;;18.61;41.17;100015.13;5090155;28;20035;-80
2021/05/09 09:27:47;;;;;;;1.00;1.00;;;;;;;18.60;42.05;100006.19;5089786;28;20031;-80
2021/05/09 09:30:14;;;;;;;2.45;1.25;;;;;;;18.52;41.25;99998.78;5090059;28;20024;-80
2021/05/09 09:32:41;;;;;;;2.05;1.20;;;;;;;18.36;41.90;100004.53;5089925;28;20020;-79
2021/05/09 09:35:28;;;;;;;2.53;1.10;;;;;;;18.20;42.38;100001.38;5089889;28;20035;-80
2021/05/09 09:37:55;;;;;;;2.65;0.85;;;;;;;18.08;42.30;99996.47;5089937;28;20024;-79
2021/05/09 09:40:20;;;;;;;1.33;1.25;;;;;;;18.10;42.05;99996.16;5089788;28;20089;-82
2021/05/09 09:42:47;;;;;;;1.08;0.98;;;;;;;18.15;42.00;99993.38;5089489;28;20024;-80
2021/05/09 09:45:18;;;;;;;1.75;1.10;;;;;;;18.23;42.05;99999.97;5089788;28;20028;-81
2021/05/09 09:48:01;;;;;;;1.00;1.00;;;;;;;18.08;41.05;100001.88;5089428;28;20056;-80
2021/05/09 09:50:36;;;;;;;2.30;1.23;;;;;;;17.90;41.73;99976.50;5089618;28;20371;-81
2021/05/09 09:53:26;;;;;;;1.90;1.40;;;;;;;17.84;41.27;99993.16;5089507;28;20027;-81
2021/05/09 09:56:13;;;;;;;1.38;1.23;;;;;;;17.71;42.58;99987.47;5081653;28;20036;-81
2021/05/09 09:58:53;;;;;;;1.17;1.17;;;;;;;17.67;41.10;99996.47;5089778;28;20016;-80
2021/05/09 10:01:27;;;;;;;3.58;1.00;;;;;;;17.68;41.94;99982.63;5089850;28;20089;-80
2021/05/09 10:03:57;;;;;;;1.60;1.50;;;;;;;17.60;41.61;99991.44;5089298;28;20475;-81
2021/05/09 10:06:24;;;;;;;3.35;1.50;;;;;;;17.51;40.96;99985.94;5090005;28;20032;-81
2021/05/09 10:08:51;;;;;;;1.48;1.10;;;;;;;17.47;40.97;99995.75;5089533;28;20024;-81
2021/05/09 10:11:18;;;;;;;1.55;1.45;;;;;;;17.43;41.94;99990.13;5090525;28;20066;-81
2021/05/09 10:13:45;;;;;;;2.50;1.20;;;;;;;17.35;42.18;99988.13;5093464;28;20024;-82
2021/05/09 10:16:11;;;;;;;1.92;1.48;;;;;;;17.43;42.30;99975.78;5093479;28;20119;-82
2021/05/09 10:18:39;;;;;;;1.55;1.45;;;;;;;17.41;42.55;99996.94;5093267;28;20027;-81
2021/05/09 10:21:05;;;;;;;2.65;1.13;;;;;;;17.42;42.51;99983.13;5093035;28;20391;-81
2021/05/09 10:23:30;;;;;;;4.95;1.10;;;;;;;17.51;42.14;99991.34;5093398;28;20028;-81
2021/05/09 10:26:00;;;;;;;1.38;1.27;;;;;;;17.53;41.95;99985.66;5093231;28;20085;-82
2021/05/09 10:28:40;;;;;;;2.47;1.25;;;;;;;17.57;42.71;99992.84;5093235;28;20043;-82
2021/05/09 10:31:06;;;;;;;1.00;1.00;;;;;;;17.71;42.07;99984.75;5092773;28;20044;-82
2021/05/09 10:33:38;;;;;;;1.35;1.25;;;;;;;17.83;42.89;99984.22;5093386;28;20077;-82
2021/05/09 10:36:09;;;;;;;1.23;1.13;;;;;;;17.92;42.21;99984.34;5092860;28;20028;-81
2021/05/09 10:39:07;;;;;;;2.78;1.20;;;;;;;17.91;41.53;99982.75;5092912;28;20035;-81
2021/05/09 10:41:33;;;;;;;1.13;1.13;;;;;;;17.95;41.83;99982.97;5092811;28;20027;-81
2021/05/09 10:43:59;;;;;;;3.10;1.17;;;;;;;17.94;40.39;99984.81;5092870;28;20379;-80
2021/05/09 10:47:01;;;;;;;1.48;1.33;;;;;;;17.99;40.35;99976.66;5092891;28;20060;-80
2021/05/09 10:49:27;;;;;;;3.55;1.20;;;;;;;18.03;40.79;99977.63;5093142;28;20016;-80
2021/05/09 10:51:52;;;;;;;1.23;1.13;;;;;;;18.17;41.02;99980.31;5092918;28;20088;-81
2021/05/09 10:54:21;;;;;;;2.20;1.33;;;;;;;18.17;40.72;99976.81;5092538;28;20024;-81
2021/05/09 10:56:47;;;;;;;1.52;0.90;;;;;;;18.17;38.75;99984.94;5092613;28;20111;-81
2021/05/09 10:59:13;;;;;;;0.90;0.90;;;;;;;18.18;38.84;99975.72;5092199;28;20423;-81
2021/05/09 11:01:39;;;;;;;1.00;1.00;;;;;;;18.24;39.28;99978.00;5092441;28;20118;-81
2021/05/09 11:04:12;;;;;;;1.95;1.33;;;;;;;18.20;39.92;99973.47;5092080;28;20103;-81
2021/05/09 11:06:43;;;;;;;0.93;0.93;;;;;;;18.22;40.15;99965.88;5092483;28;20114;-80
2021/05/09 11:09:13;;;;;;;1.60;1.50;;;;;;;18.19;38.26;99961.88;5092470;28;20016;-81
2021/05/09 11:11:38;;;;;;;1.77;1.50;;;;;;;18.18;39.38;99962.19;5092443;28;20031;-80
2021/05/09 11:14:13;;;;;;;3.10;1.30;;;;;;;18.21;39.58;99970.50;5092581;28;20020;-80
2021/05/09 11:16:43;;;;;;;1.50;1.20;;;;;;;18.08;38.54;99966.69;5093169;28;20054;-80
2021/05/09 11:19:17;;;;;;;1.20;1.10;;;;;;;17.86;38.32;99959.28;5092936;28;20568;-80
2021/05/09 11:21:46;;;;;;;1.23;1.13;;;;;;;17.79;37.62;99969.72;5093450;28;20368;-80
2021/05/09 11:24:19;;;;;;;0.90;0.90;;;;;;;17.68;37.53;99958.28;5091808;28;20027;-80
2021/05/09 11:26:47;;;;;;;2.22;1.38;;;;;;;17.70;38.04;99958.78;5092911;28;20024;-81
2021/05/09 11:29:20;;;;;;;1.00;1.00;;;;;;;17.83;40.39;99959.09;5092386;28;20444;-80
2021/05/09 11:31:51;;;;;;;1.92;1.17;;;;;;;17.90;39.39;99952.16;5091644;28;20112;-80